createdAt,value
2022-08-03T00:03:25.006Z,60.59
2022-08-03T00:09:26.569Z,61.07
2022-08-03T00:15:37.038Z,60.84
2022-08-03T00:21:38.507Z,60.83
2022-08-03T00:27:39.971Z,60.75
2022-08-03T00:33:58.180Z,61.17
2022-08-03T00:40:01.269Z,61.06
2022-08-03T00:46:05.159Z,61.15
2022-08-03T00:52:07.836Z,60.96
2022-08-03T00:58:11.947Z,60.59
2022-08-03T01:04:13.400Z,61.02
2022-08-03T01:10:14.942Z,60.86
2022-08-03T01:16:16.420Z,61.11
2022-08-03T01:22:18.052Z,60.75
2022-08-03T01:28:19.670Z,60.84
2022-08-03T01:34:21.189Z,60.86
2022-08-03T01:40:22.699Z,60.96
2022-08-03T01:46:24.253Z,60.42
2022-08-03T01:52:25.814Z,60.98
2022-08-03T01:58:27.250Z,60.71
2022-08-03T02:04:28.749Z,60.84
2022-08-03T02:10:35.185Z,60.72
2022-08-03T02:16:37.181Z,60.53
2022-08-03T02:22:38.704Z,60.86
2022-08-03T02:28:40.146Z,61.03
2022-08-03T02:34:41.605Z,60.72
2022-08-03T02:40:43.113Z,60.79
2022-08-03T02:46:44.752Z,60.36
2022-08-03T02:52:46.254Z,60.78
2022-08-03T02:58:47.786Z,60.79
2022-08-03T03:05:52.534Z,60.63
2022-08-03T03:11:10.694Z,60.44
2022-08-03T03:17:12.149Z,60.60
2022-08-03T03:23:13.580Z,60.42
2022-08-03T03:29:15.051Z,60.66
2022-08-03T03:35:16.804Z,60.44
2022-08-03T03:41:18.304Z,60.68
2022-08-03T03:47:32.715Z,60.52
2022-08-03T03:53:34.492Z,60.73
2022-08-03T03:59:35.985Z,60.65
2022-08-03T04:06:09.872Z,60.33
2022-08-03T04:12:11.328Z,60.58
2022-08-03T04:18:12.779Z,59.58
2022-08-03T04:24:14.229Z,58.30
2022-08-03T04:30:15.694Z,57.47
2022-08-03T04:36:17.218Z,56.63
2022-08-03T04:42:18.967Z,56.35
2022-08-03T04:48:20.610Z,56.38
2022-08-03T04:54:22.069Z,55.81
2022-08-03T05:00:23.565Z,54.83
2022-08-03T05:06:25.273Z,54.49
2022-08-03T05:12:32.067Z,54.79
2022-08-03T05:18:34.110Z,53.64
2022-08-03T05:24:35.566Z,52.97
2022-08-03T05:30:37.244Z,52.99
2022-08-03T05:36:39.768Z,53.70
2022-08-03T05:42:41.706Z,53.46
2022-08-03T05:48:43.270Z,53.74
2022-08-03T05:54:55.997Z,53.69
2022-08-03T06:00:59.087Z,54.54
2022-08-03T06:07:00.902Z,54.39
2022-08-03T06:13:02.429Z,54.39
2022-08-03T06:19:04.026Z,53.97
2022-08-03T06:25:08.237Z,54.69
2022-08-03T06:31:12.833Z,54.92
2022-08-03T06:37:14.272Z,54.95
2022-08-03T06:43:16.043Z,54.99
2022-08-03T06:49:17.833Z,55.60
2022-08-03T06:55:19.352Z,55.35
2022-08-03T07:01:20.954Z,55.41
2022-08-03T07:07:22.893Z,55.52
2022-08-03T07:13:24.414Z,55.35
2022-08-03T07:19:26.374Z,55.40
2022-08-03T07:25:28.035Z,55.56
2022-08-03T07:31:34.408Z,55.85
2022-08-03T07:37:36.294Z,56.26
2022-08-03T07:43:37.881Z,55.96
2022-08-03T07:49:39.481Z,56.29
2022-08-03T07:55:41.013Z,56.13
2022-08-03T08:01:42.616Z,57.69
2022-08-03T08:07:44.220Z,57.97
2022-08-03T08:13:52.366Z,57.46
2022-08-03T08:19:53.884Z,57.23
2022-08-03T08:25:55.402Z,57.45
2022-08-03T08:31:56.902Z,57.83
2022-08-03T08:37:58.548Z,57.76
2022-08-03T08:44:08.431Z,57.90
2022-08-03T08:50:15.529Z,57.81
2022-08-03T08:56:29.010Z,58.18
2022-08-03T09:02:30.527Z,57.94
2022-08-03T09:08:32.102Z,58.34
2022-08-03T09:14:39.146Z,56.82
2022-08-03T09:20:43.910Z,55.35
2022-08-03T09:26:45.438Z,54.69
2022-08-03T09:32:46.956Z,56.40
2022-08-03T09:38:48.690Z,57.04
2022-08-03T09:44:51.734Z,57.85
2022-08-03T09:50:58.440Z,58.24
2022-08-03T09:57:13.947Z,58.28
2022-08-03T10:03:15.560Z,59.30
2022-08-03T10:09:17.098Z,58.76
2022-08-03T10:16:23.605Z,59.82
2022-08-03T10:21:40.628Z,59.31
2022-08-03T10:27:42.162Z,58.75
2022-08-03T10:33:52.012Z,59.80
2022-08-03T10:39:54.198Z,59.92
2022-08-03T10:45:55.715Z,60.49
2022-08-03T10:51:57.247Z,60.18
2022-08-03T10:57:59.262Z,59.94
2022-08-03T11:04:00.795Z,59.29
2022-08-03T11:10:02.319Z,59.52
2022-08-03T11:16:07.116Z,59.40
2022-08-03T11:22:10.294Z,59.38
2022-08-03T11:28:14.408Z,59.44
2022-08-03T11:34:16.350Z,59.42
2022-08-03T11:40:17.871Z,59.42
2022-08-03T11:46:29.368Z,58.93
2022-08-03T11:52:31.485Z,58.94
2022-08-03T11:59:03.380Z,58.68
2022-08-03T12:04:54.558Z,58.76
2022-08-03T12:10:56.016Z,58.77
2022-08-03T12:16:57.491Z,59.45
2022-08-03T12:23:00.195Z,58.76
2022-08-03T12:29:01.800Z,58.83
2022-08-03T12:35:05.216Z,58.84
2022-08-03T12:41:06.871Z,58.21
2022-08-03T12:47:10.461Z,58.37
2022-08-03T12:53:12.444Z,57.95
2022-08-03T12:59:13.972Z,58.31
2022-08-03T13:05:18.052Z,58.49
2022-08-03T13:11:19.857Z,58.46
2022-08-03T13:17:21.658Z,58.19
2022-08-03T13:23:23.319Z,57.82
2022-08-03T13:29:24.785Z,58.21
2022-08-03T13:35:26.255Z,58.32
2022-08-03T13:41:31.083Z,58.07
2022-08-03T13:47:32.790Z,57.97
2022-08-03T13:53:34.263Z,58.43
2022-08-03T13:59:35.784Z,58.21
2022-08-03T14:05:39.210Z,57.80
2022-08-03T14:12:07.829Z,58.54
2022-08-03T14:18:02.541Z,52.33
2022-08-03T14:24:04.004Z,54.40
2022-08-03T14:30:05.591Z,55.92
2022-08-03T14:36:07.112Z,55.24
2022-08-03T14:42:08.658Z,57.30
2022-08-03T14:50:31.912Z,57.17
2022-08-03T14:54:31.727Z,57.61
2022-08-03T15:00:33.173Z,57.73
2022-08-03T15:06:34.697Z,57.42
2022-08-03T15:12:36.187Z,57.87
2022-08-03T15:18:37.654Z,58.78
2022-08-03T15:24:39.127Z,58.60
2022-08-03T15:30:40.603Z,59.08
2022-08-03T15:36:42.118Z,58.86
2022-08-03T15:42:43.570Z,58.94
2022-08-03T15:48:45.174Z,58.58
2022-08-03T15:54:46.705Z,59.41
2022-08-03T16:00:48.172Z,59.33
2022-08-03T16:06:49.694Z,59.06
2022-08-03T16:12:51.294Z,58.91
2022-08-03T16:18:52.741Z,59.05
2022-08-03T16:24:54.192Z,59.29
2022-08-03T16:30:55.622Z,59.12
2022-08-03T16:36:57.118Z,59.24
2022-08-03T16:42:58.600Z,59.37
2022-08-03T16:49:00.041Z,59.84
2022-08-03T16:55:02.048Z,59.71
2022-08-03T17:01:21.097Z,59.77
2022-08-03T17:07:24.220Z,59.90
2022-08-03T17:13:39.034Z,59.69
2022-08-03T17:19:41.624Z,59.66
2022-08-03T17:26:02.139Z,59.80
2022-08-03T17:32:09.773Z,59.82
2022-08-03T17:38:15.769Z,59.96
2022-08-03T17:44:33.005Z,60.04
2022-08-03T17:50:40.269Z,59.92
2022-08-03T17:56:46.397Z,59.61
2022-08-03T18:03:06.929Z,59.23
2022-08-03T18:10:04.288Z,59.24
2022-08-03T18:15:33.071Z,59.40
2022-08-03T18:22:02.123Z,59.13
2022-08-03T18:27:58.747Z,58.88
2022-08-03T18:34:32.119Z,58.78
2022-08-03T18:40:22.470Z,59.02
2022-08-03T18:46:24.307Z,58.42
2022-08-03T18:52:27.710Z,58.92
2022-08-03T18:58:29.493Z,58.24
2022-08-03T19:04:31.441Z,58.67
2022-08-03T19:10:34.929Z,58.55
2022-08-03T19:16:38.728Z,58.47
2022-08-03T19:22:45.882Z,58.91
2022-08-03T19:28:47.906Z,58.38
2022-08-03T19:34:54.118Z,58.64
2022-08-03T19:40:57.279Z,58.52
2022-08-03T19:47:01.125Z,58.87
2022-08-03T19:53:02.995Z,58.91
2022-08-03T19:59:04.992Z,58.74
2022-08-03T20:05:15.639Z,58.64
2022-08-03T20:11:17.350Z,59.04
2022-08-03T20:17:21.104Z,58.74
2022-08-03T20:23:22.828Z,58.57
2022-08-03T20:29:42.578Z,58.21
2022-08-03T20:35:48.950Z,58.53
2022-08-03T20:42:07.790Z,58.10
2022-08-03T20:48:10.451Z,58.38
2022-08-03T20:54:29.003Z,59.05
2022-08-03T21:00:32.210Z,58.95
2022-08-03T21:06:33.732Z,59.15
2022-08-03T21:12:35.392Z,59.45
2022-08-03T21:18:36.935Z,59.25
2022-08-03T21:24:38.460Z,59.62
2022-08-03T21:30:39.926Z,59.58
2022-08-03T21:36:41.399Z,59.34
2022-08-03T21:42:42.847Z,59.46
2022-08-03T21:48:44.937Z,59.63
2022-08-03T21:54:46.427Z,59.49
2022-08-03T22:00:47.907Z,59.80
2022-08-03T22:06:49.369Z,59.63
2022-08-03T22:12:50.881Z,59.92
2022-08-03T22:18:52.392Z,59.88
2022-08-03T22:24:54.033Z,59.73
2022-08-03T22:30:57.391Z,59.75
2022-08-03T22:37:00.363Z,59.50
2022-08-03T22:43:02.109Z,59.99
2022-08-03T22:49:03.598Z,59.94
2022-08-03T22:55:05.082Z,59.51
2022-08-03T23:01:06.539Z,59.55
2022-08-03T23:07:09.352Z,60.00
2022-08-03T23:13:10.783Z,59.91
2022-08-03T23:19:17.277Z,60.09
2022-08-03T23:25:27.241Z,59.72
2022-08-03T23:31:28.800Z,60.11
2022-08-03T23:37:30.316Z,60.14
2022-08-03T23:43:45.119Z,59.88
2022-08-03T23:49:53.678Z,60.33
2022-08-03T23:55:55.125Z,60.08
